Time;durP1;ratioP1;P1;durP2;ratioP2;P2;SDS_P1;SDS_P2;PMS_P1;PMS_P2;Temp;Humidity;BMP_temperature;BMP_pressure;BME280_temperature;BME280_humidity;BME280_pressure;Samples;Min_cycle;Max_cycle;Signal;HPM_P1;HPM_P2
2023/04/15 00:01:21;;;;;;;4.80;2.10;;;10.80;99.90;;;;;;5050353;28;20037;-73
2023/04/15 00:03:49;;;;;;;4.60;2.13;;;10.70;99.90;;;;;;5049204;28;20509;-73
2023/04/15 00:06:15;;;;;;;3.30;2.50;;;10.80;99.90;;;;;;5048252;28;20029;-73
2023/04/15 00:08:41;;;;;;;5.10;2.40;;;10.80;99.90;;;;;;5049648;28;20043;-73
2023/04/15 00:11:07;;;;;;;2.92;2.08;;;10.80;99.90;;;;;;5032595;28;20512;-73
2023/04/15 00:13:33;;;;;;;4.35;2.22;;;10.70;99.90;;;;;;5051081;28;20040;-73
2023/04/15 00:16:00;;;;;;;3.33;2.40;;;10.80;99.90;;;;;;5034915;28;20045;-74
2023/04/15 00:18:26;;;;;;;8.32;2.63;;;10.70;99.90;;;;;;5050361;28;20029;-73
2023/04/15 00:20:53;;;;;;;6.07;2.30;;;10.70;99.90;;;;;;5051560;28;20028;-73
2023/04/15 00:23:19;;;;;;;3.97;2.58;;;10.60;99.90;;;;;;5043050;28;20029;-74
2023/04/15 00:25:45;;;;;;;3.50;2.17;;;10.60;99.90;;;;;;5049727;28;20025;-73
2023/04/15 00:28:12;;;;;;;8.60;2.40;;;10.60;99.90;;;;;;5046972;28;20040;-73
2023/04/15 00:30:38;;;;;;;4.72;2.40;;;10.60;99.90;;;;;;5050285;28;20514;-73
2023/04/15 00:33:04;;;;;;;7.72;2.42;;;10.50;99.90;;;;;;5048845;28;20025;-73
2023/04/15 00:35:33;;;;;;;4.30;2.13;;;10.40;99.90;;;;;;5050593;28;20499;-73
2023/04/15 00:37:59;;;;;;;4.35;2.40;;;10.40;99.90;;;;;;5029435;28;20507;-73
2023/04/15 00:40:26;;;;;;;6.65;2.30;;;10.40;99.90;;;;;;5046673;28;20037;-73
2023/04/15 00:42:53;;;;;;;4.40;2.10;;;10.40;99.90;;;;;;5049124;28;20060;-73
2023/04/15 00:45:19;;;;;;;4.95;2.20;;;10.30;99.90;;;;;;5047708;28;20028;-73
2023/04/15 00:47:45;;;;;;;5.90;2.42;;;10.30;99.90;;;;;;5036609;28;20395;-72
2023/04/15 00:50:11;;;;;;;3.28;2.30;;;10.30;99.90;;;;;;5046214;28;20028;-73
2023/04/15 00:52:38;;;;;;;3.13;2.13;;;10.30;99.90;;;;;;5051210;28;20045;-73
2023/04/15 00:55:05;;;;;;;4.85;2.08;;;10.30;99.90;;;;;;5054423;28;20503;-73
2023/04/15 00:57:32;;;;;;;2.53;2.20;;;10.20;99.90;;;;;;5049786;28;20056;-73
2023/04/15 00:59:58;;;;;;;4.28;2.10;;;10.30;99.90;;;;;;5052302;28;20040;-73
2023/04/15 01:02:24;;;;;;;7.97;2.20;;;10.20;99.90;;;;;;5053054;28;20043;-73
2023/04/15 01:04:50;;;;;;;6.65;2.25;;;10.20;99.90;;;;;;5054084;28;20033;-73
2023/04/15 01:07:16;;;;;;;3.05;1.92;;;10.30;99.90;;;;;;5049434;28;20032;-73
2023/04/15 01:09:42;;;;;;;5.85;2.33;;;10.30;99.90;;;;;;5052877;28;20033;-73
2023/04/15 01:12:12;;;;;;;5.97;2.30;;;10.20;99.90;;;;;;5030737;28;20021;-74
2023/04/15 01:14:38;;;;;;;5.25;2.50;;;10.30;99.90;;;;;;5052377;28;20032;-73
2023/04/15 01:17:05;;;;;;;5.78;2.00;;;10.30;99.90;;;;;;5051533;28;20037;-73
2023/04/15 01:19:31;;;;;;;2.33;2.13;;;10.20;99.90;;;;;;5055241;28;20043;-76
2023/04/15 01:21:57;;;;;;;4.97;2.40;;;10.20;99.90;;;;;;5053606;28;20032;-75
2023/04/15 01:24:23;;;;;;;8.00;2.20;;;10.20;99.90;;;;;;5053927;28;20060;-76
2023/04/15 01:26:49;;;;;;;6.53;2.70;;;10.20;99.90;;;;;;5050910;28;20032;-76
2023/04/15 01:29:15;;;;;;;4.90;2.47;;;10.20;99.90;;;;;;5051876;28;20395;-76
2023/04/15 01:31:52;;;;;;;6.32;2.40;;;10.30;99.90;;;;;;5052804;28;20025;-76
2023/04/15 01:34:18;;;;;;;4.80;2.40;;;10.40;99.90;;;;;;5052639;28;20021;-76
2023/04/15 01:36:45;;;;;;;2.58;1.95;;;10.30;99.90;;;;;;5052266;28;20478;-76
2023/04/15 01:39:11;;;;;;;7.30;2.50;;;10.30;99.90;;;;;;5033979;28;20041;-76
2023/04/15 01:41:37;;;;;;;4.05;2.20;;;10.30;99.90;;;;;;5028173;28;20040;-76
2023/04/15 01:44:03;;;;;;;3.35;2.47;;;10.30;99.90;;;;;;5048172;28;20025;-76
2023/04/15 01:46:30;;;;;;;4.45;2.20;;;10.30;99.90;;;;;;5050422;28;20044;-76
2023/04/15 01:48:56;;;;;;;7.13;2.60;;;10.40;99.90;;;;;;5054309;28;20039;-73
2023/04/15 01:51:22;;;;;;;3.20;2.50;;;10.40;99.90;;;;;;5053776;28;20056;-73
2023/04/15 01:53:48;;;;;;;4.07;2.30;;;10.40;99.90;;;;;;5052710;28;20060;-73
2023/04/15 01:56:14;;;;;;;6.15;2.30;;;10.40;99.90;;;;;;5051207;28;20033;-73
2023/04/15 01:58:41;;;;;;;3.22;2.40;;;10.30;99.90;;;;;;5048272;28;20391;-73
2023/04/15 02:01:09;;;;;;;3.83;2.20;;;10.30;99.90;;;;;;5050396;28;20487;-73
2023/04/15 02:03:36;;;;;;;2.72;2.17;;;10.20;99.90;;;;;;5047899;28;20029;-73
2023/04/15 02:06:03;;;;;;;2.83;2.13;;;10.20;99.90;;;;;;5054607;28;20403;-74
2023/04/15 02:08:29;;;;;;;4.82;2.20;;;10.10;99.90;;;;;;5042853;28;20045;-73
2023/04/15 02:10:55;;;;;;;5.35;2.28;;;10.10;99.90;;;;;;5050156;28;20037;-74
2023/04/15 02:13:21;;;;;;;5.78;2.25;;;10.10;99.90;;;;;;5049128;28;20463;-74
2023/04/15 02:15:48;;;;;;;5.43;2.50;;;10.10;99.90;;;;;;5048566;28;20064;-73
2023/04/15 02:18:15;;;;;;;6.18;2.80;;;10.00;99.90;;;;;;5033346;28;20059;-73
2023/04/15 02:20:43;;;;;;;5.22;2.45;;;10.00;99.90;;;;;;5049626;28;20025;-73
2023/04/15 02:23:10;;;;;;;5.85;2.28;;;10.00;99.90;;;;;;5049548;28;20060;-73
2023/04/15 02:25:37;;;;;;;3.78;2.10;;;9.90;99.90;;;;;;5050892;28;20037;-74
2023/04/15 02:28:06;;;;;;;4.28;2.20;;;9.90;99.90;;;;;;5049542;28;20033;-73
2023/04/15 02:30:33;;;;;;;4.18;2.30;;;9.90;99.90;;;;;;5048922;28;20044;-73
2023/04/15 02:32:59;;;;;;;7.30;2.30;;;9.80;99.90;;;;;;5025681;28;20053;-73
2023/04/15 02:35:26;;;;;;;5.93;2.17;;;9.80;99.90;;;;;;5027764;28;20033;-74
2023/04/15 02:37:52;;;;;;;4.15;2.03;;;9.80;99.90;;;;;;5029587;28;20041;-73
2023/04/15 02:40:18;;;;;;;4.55;2.25;;;9.80;99.90;;;;;;5035231;28;20033;-72
2023/04/15 02:42:44;;;;;;;5.03;2.25;;;9.80;99.90;;;;;;5050022;28;20044;-73
2023/04/15 02:45:13;;;;;;;4.95;2.50;;;9.80;99.90;;;;;;5049613;28;20104;-73
2023/04/15 02:47:42;;;;;;;7.75;2.15;;;9.80;99.90;;;;;;5049108;28;20112;-73
2023/04/15 02:50:11;;;;;;;5.05;2.03;;;9.70;99.90;;;;;;5050515;28;20033;-73
2023/04/15 02:52:40;;;;;;;2.97;2.13;;;9.70;99.90;;;;;;5045516;28;20048;-74
2023/04/15 02:55:07;;;;;;;3.35;2.10;;;9.70;99.90;;;;;;5050589;28;20784;-73
2023/04/15 02:57:36;;;;;;;4.78;2.05;;;9.60;99.90;;;;;;5048457;28;20066;-74
2023/04/15 03:00:08;;;;;;;5.82;2.28;;;9.60;99.90;;;;;;5050130;28;20388;-73
2023/04/15 03:02:35;;;;;;;6.28;2.30;;;9.70;99.90;;;;;;5045492;28;20028;-73
2023/04/15 03:05:01;;;;;;;8.02;2.30;;;9.70;99.90;;;;;;5049420;28;20028;-73
2023/04/15 03:07:27;;;;;;;5.72;2.17;;;9.70;99.90;;;;;;5049530;28;20029;-73
2023/04/15 03:09:54;;;;;;;4.20;2.28;;;9.70;99.90;;;;;;5046671;28;20450;-73
2023/04/15 03:12:20;;;;;;;5.20;2.42;;;9.60;99.90;;;;;;5048702;28;20025;-73
2023/04/15 03:14:46;;;;;;;5.00;2.30;;;9.60;99.90;;;;;;5050427;28;20526;-73
2023/04/15 03:17:12;;;;;;;6.68;2.22;;;9.50;99.90;;;;;;5048706;28;20060;-73
2023/04/15 03:19:38;;;;;;;9.10;2.15;;;9.50;99.90;;;;;;5033702;28;20029;-73
2023/04/15 03:22:04;;;;;;;3.58;2.10;;;9.40;99.90;;;;;;5051211;28;20037;-73
2023/04/15 03:24:30;;;;;;;10.43;2.28;;;9.50;99.90;;;;;;5050364;28;20487;-75
2023/04/15 03:26:56;;;;;;;7.95;2.70;;;9.50;99.90;;;;;;5045574;28;20037;-76
2023/04/15 03:29:23;;;;;;;5.68;2.30;;;9.40;99.90;;;;;;5043377;28;20036;-75
2023/04/15 03:31:49;;;;;;;8.07;2.38;;;9.50;99.90;;;;;;5050950;28;20025;-75
2023/04/15 03:34:15;;;;;;;6.45;2.25;;;9.60;99.90;;;;;;5050371;28;20033;-76
2023/04/15 03:36:41;;;;;;;8.82;2.28;;;9.50;99.90;;;;;;5046500;28;20510;-76
2023/04/15 03:39:07;;;;;;;8.60;2.40;;;9.40;99.90;;;;;;5055414;28;20486;-75
2023/04/15 03:41:33;;;;;;;5.45;2.40;;;9.20;99.90;;;;;;5050163;28;20036;-76
2023/04/15 03:43:59;;;;;;;9.32;2.50;;;9.20;99.90;;;;;;5037754;28;20025;-75
2023/04/15 03:46:26;;;;;;;6.53;2.17;;;9.20;99.90;;;;;;5049305;28;20052;-75
2023/04/15 03:48:52;;;;;;;5.20;2.15;;;9.10;99.90;;;;;;5051105;28;20028;-76
2023/04/15 03:51:18;;;;;;;5.85;2.17;;;9.20;99.90;;;;;;5048526;28;20052;-76
2023/04/15 03:53:44;;;;;;;3.65;2.20;;;9.20;99.90;;;;;;5049292;28;20033;-76
2023/04/15 03:56:10;;;;;;;3.33;1.90;;;9.10;99.90;;;;;;5049145;28;20037;-75
2023/04/15 03:58:37;;;;;;;8.25;2.40;;;9.10;99.90;;;;;;5046575;28;20036;-76
2023/04/15 04:01:03;;;;;;;6.90;2.33;;;9.10;99.90;;;;;;5042438;28;20032;-76
2023/04/15 04:03:29;;;;;;;8.23;2.30;;;9.20;99.90;;;;;;5028229;28;20380;-76
2023/04/15 04:05:55;;;;;;;7.40;2.28;;;9.20;99.90;;;;;;5049778;28;20032;-76
2023/04/15 04:08:21;;;;;;;5.28;2.40;;;9.10;99.90;;;;;;5048902;28;20025;-76
2023/04/15 04:10:47;;;;;;;8.73;2.55;;;9.00;99.90;;;;;;5051095;28;20036;-76
2023/04/15 04:13:14;;;;;;;7.50;2.40;;;9.00;99.90;;;;;;5051564;28;20037;-76
2023/04/15 04:15:40;;;;;;;3.47;2.40;;;9.10;99.90;;;;;;5050608;28;20021;-76
2023/04/15 04:18:06;;;;;;;6.93;2.00;;;9.00;99.90;;;;;;5050550;28;20037;-76
2023/04/15 04:20:33;;;;;;;6.93;2.75;;;9.00;99.90;;;;;;5051998;28;20032;-76
2023/04/15 04:22:59;;;;;;;4.85;2.42;;;9.00;99.90;;;;;;5048662;28;20021;-76
2023/04/15 04:25:26;;;;;;;5.35;2.40;;;9.00;99.90;;;;;;5050031;28;20037;-76
2023/04/15 04:27:52;;;;;;;6.22;2.55;;;8.90;99.90;;;;;;5054439;28;20029;-77
2023/04/15 04:30:18;;;;;;;7.10;2.75;;;8.90;99.90;;;;;;5055263;28;20033;-73
2023/04/15 04:32:44;;;;;;;5.50;2.38;;;9.00;99.90;;;;;;5055381;28;20032;-73
2023/04/15 04:35:10;;;;;;;4.18;2.47;;;9.00;99.90;;;;;;5055687;28;20028;-73
2023/04/15 04:37:36;;;;;;;6.85;2.92;;;8.90;99.90;;;;;;5054293;28;20063;-73
2023/04/15 04:40:03;;;;;;;6.13;2.40;;;8.80;99.90;;;;;;5055875;28;20025;-73
2023/04/15 04:42:30;;;;;;;12.18;2.88;;;8.80;99.90;;;;;;5055089;28;20021;-73
2023/04/15 04:44:56;;;;;;;4.95;2.78;;;8.90;99.90;;;;;;5054373;28;20021;-73
2023/04/15 04:47:22;;;;;;;6.90;2.30;;;8.90;99.90;;;;;;5055367;28;20037;-73
2023/04/15 04:49:48;;;;;;;7.07;2.63;;;8.70;99.90;;;;;;5055630;28;20021;-73
2023/04/15 04:52:14;;;;;;;12.30;2.75;;;8.70;99.90;;;;;;5053498;28;20511;-73
2023/04/15 04:54:40;;;;;;;11.55;2.75;;;8.70;99.90;;;;;;5054312;28;20025;-73
2023/04/15 04:57:07;;;;;;;6.25;2.38;;;8.70;99.90;;;;;;5054159;28;20395;-73
2023/04/15 04:59:33;;;;;;;6.28;2.45;;;8.70;99.90;;;;;;5054249;28;20037;-73
2023/04/15 05:01:59;;;;;;;9.00;2.70;;;8.70;99.90;;;;;;5054610;28;20025;-73
2023/04/15 05:04:25;;;;;;;5.35;2.35;;;8.60;99.90;;;;;;5051726;28;20033;-73
2023/04/15 05:06:51;;;;;;;7.22;2.88;;;8.60;99.90;;;;;;5054897;28;20033;-74
2023/04/15 05:09:17;;;;;;;5.18;2.40;;;8.60;99.90;;;;;;5035892;28;20037;-73
2023/04/15 05:11:44;;;;;;;3.92;2.30;;;8.50;99.90;;;;;;5035977;28;20041;-74
2023/04/15 05:14:10;;;;;;;8.70;2.65;;;8.50;99.90;;;;;;5049037;28;20037;-73
2023/04/15 05:16:36;;;;;;;7.43;2.45;;;8.50;99.90;;;;;;5053025;28;20045;-73
2023/04/15 05:19:02;;;;;;;7.10;3.08;;;8.40;99.90;;;;;;5054399;28;20107;-72
2023/04/15 05:21:28;;;;;;;7.68;2.75;;;8.30;99.90;;;;;;5052383;28;20032;-71
2023/04/15 05:23:54;;;;;;;7.50;2.67;;;8.30;99.90;;;;;;5035902;28;20040;-72
2023/04/15 05:26:21;;;;;;;8.73;2.80;;;8.30;99.90;;;;;;5054230;28;20037;-73
2023/04/15 05:28:47;;;;;;;5.75;2.50;;;8.40;99.90;;;;;;5054425;28;20037;-72
2023/04/15 05:31:13;;;;;;;8.82;2.67;;;8.40;99.90;;;;;;5053304;28;20025;-72
2023/04/15 05:33:39;;;;;;;5.40;2.53;;;8.40;99.90;;;;;;5052658;28;20037;-72
2023/04/15 05:36:06;;;;;;;6.30;2.80;;;8.40;99.90;;;;;;5052225;28;20033;-73
2023/04/15 05:38:32;;;;;;;10.73;3.30;;;8.40;99.90;;;;;;5053448;28;20037;-72
2023/04/15 05:40:58;;;;;;;11.85;2.83;;;8.30;99.90;;;;;;5053801;28;20040;-72
2023/04/15 05:43:24;;;;;;;13.13;3.53;;;8.40;99.90;;;;;;5053831;28;20620;-72
2023/04/15 05:45:51;;;;;;;9.75;2.92;;;8.50;99.90;;;;;;5054124;28;20407;-72
2023/04/15 05:48:17;;;;;;;8.40;2.80;;;8.40;99.90;;;;;;5036545;28;20040;-72
2023/04/15 05:50:43;;;;;;;8.25;3.13;;;8.50;99.90;;;;;;5034892;28;20412;-73
2023/04/15 05:53:09;;;;;;;8.60;2.60;;;8.60;99.90;;;;;;5032761;28;20068;-72
2023/04/15 05:55:36;;;;;;;7.07;2.58;;;8.50;99.90;;;;;;5026822;28;20056;-73
2023/04/15 05:58:02;;;;;;;8.35;2.88;;;8.60;99.90;;;;;;5053405;28;20048;-72
2023/04/15 06:00:28;;;;;;;7.80;2.95;;;8.60;99.90;;;;;;5053965;28;20052;-72
2023/04/15 06:02:56;;;;;;;7.88;2.90;;;8.70;99.90;;;;;;5053328;28;20062;-73
2023/04/15 06:05:23;;;;;;;10.98;2.67;;;8.70;99.90;;;;;;5053489;28;20028;-72
2023/04/15 06:07:49;;;;;;;7.47;2.50;;;8.70;99.90;;;;;;5054218;28;20028;-72
2023/04/15 06:10:15;;;;;;;7.20;3.20;;;8.70;99.90;;;;;;5054404;28;20380;-73
2023/04/15 06:12:41;;;;;;;6.72;2.80;;;8.80;99.90;;;;;;5054154;28;20029;-75
2023/04/15 06:15:09;;;;;;;8.05;3.65;;;8.90;99.90;;;;;;5052083;28;20048;-75
2023/04/15 06:17:36;;;;;;;12.80;3.22;;;9.10;99.90;;;;;;5052726;28;20045;-69
2023/04/15 06:20:02;;;;;;;7.22;2.90;;;9.30;99.90;;;;;;5052363;28;20040;-78
2023/04/15 06:22:28;;;;;;;6.55;3.10;;;9.60;99.90;;;;;;5051619;28;20037;-76
2023/04/15 06:24:54;;;;;;;10.75;3.67;;;9.80;99.90;;;;;;5051912;28;20067;-75
2023/04/15 06:27:21;;;;;;;7.25;3.00;;;9.90;99.90;;;;;;5053842;28;20025;-75
2023/04/15 06:29:48;;;;;;;5.82;3.10;;;10.00;99.90;;;;;;5051311;28;20029;-75
2023/04/15 06:32:14;;;;;;;11.82;3.20;;;10.10;99.90;;;;;;5051982;28;20498;-77
2023/04/15 06:34:40;;;;;;;6.10;3.28;;;10.20;99.90;;;;;;5052602;28;20033;-75
2023/04/15 06:37:06;;;;;;;8.88;3.22;;;10.20;99.90;;;;;;5053390;28;20399;-75
2023/04/15 06:39:32;;;;;;;10.18;3.42;;;10.30;99.90;;;;;;5053220;28;20041;-75
2023/04/15 06:41:58;;;;;;;10.38;3.17;;;10.40;99.90;;;;;;5048175;28;20033;-75
2023/04/15 06:44:24;;;;;;;8.15;3.22;;;10.50;99.90;;;;;;5044137;28;20439;-75
2023/04/15 06:46:50;;;;;;;7.88;2.88;;;10.60;99.90;;;;;;5042294;28;20040;-75
2023/04/15 06:49:16;;;;;;;8.35;3.33;;;10.70;99.90;;;;;;5051626;28;20044;-75
2023/04/15 06:51:42;;;;;;;9.55;3.53;;;10.90;99.90;;;;;;5053148;28;20041;-75
2023/04/15 06:54:08;;;;;;;9.95;3.40;;;11.00;99.90;;;;;;5035651;28;20357;-75
2023/04/15 06:56:35;;;;;;;8.80;3.55;;;11.00;99.90;;;;;;5053145;28;20040;-75
2023/04/15 06:59:01;;;;;;;6.75;3.38;;;11.00;99.90;;;;;;5051986;28;20029;-75
2023/04/15 07:01:27;;;;;;;12.07;4.03;;;11.10;99.90;;;;;;5051200;28;20632;-74
2023/04/15 07:03:53;;;;;;;8.65;3.22;;;11.20;99.90;;;;;;5028773;28;20032;-75
2023/04/15 07:06:20;;;;;;;9.00;3.60;;;11.30;99.90;;;;;;5032681;28;20029;-75
2023/04/15 07:08:46;;;;;;;9.10;3.22;;;11.40;99.90;;;;;;5052787;28;20035;-75
2023/04/15 07:11:13;;;;;;;9.65;3.30;;;11.30;99.90;;;;;;5050892;28;20037;-74
2023/04/15 07:13:39;;;;;;;12.73;3.50;;;11.30;99.90;;;;;;5050998;28;20028;-75
2023/04/15 07:16:05;;;;;;;15.90;4.00;;;11.40;99.90;;;;;;5047477;28;20045;-75
2023/04/15 07:18:31;;;;;;;11.65;4.20;;;11.50;99.90;;;;;;5052798;28;20044;-74
2023/04/15 07:20:57;;;;;;;7.45;3.78;;;11.60;99.90;;;;;;5051813;28;20029;-75
2023/04/15 07:23:23;;;;;;;12.45;4.10;;;11.80;99.90;;;;;;5033027;28;20029;-75
2023/04/15 07:25:50;;;;;;;11.55;4.05;;;11.90;99.90;;;;;;5037560;28;20025;-76
2023/04/15 07:28:16;;;;;;;8.85;3.67;;;12.00;99.90;;;;;;5051032;28;20380;-75
2023/04/15 07:30:42;;;;;;;6.00;3.40;;;12.10;99.90;;;;;;5049035;28;20415;-73
2023/04/15 07:33:08;;;;;;;11.85;3.30;;;12.30;99.90;;;;;;5052238;28;20037;-75
2023/04/15 07:35:35;;;;;;;9.70;4.20;;;12.40;99.90;;;;;;5051413;28;20483;-75
2023/04/15 07:38:01;;;;;;;8.80;4.35;;;12.50;99.90;;;;;;5050588;28;20040;-74
2023/04/15 07:40:27;;;;;;;9.40;3.92;;;12.60;99.90;;;;;;5051660;28;20036;-74
2023/04/15 07:42:56;;;;;;;7.15;3.92;;;12.70;99.90;;;;;;5045184;28;20034;-74
2023/04/15 07:45:22;;;;;;;10.98;4.00;;;12.80;99.90;;;;;;5046855;28;20080;-73
2023/04/15 07:47:49;;;;;;;13.75;3.92;;;12.80;99.90;;;;;;5051024;28;20036;-73
2023/04/15 07:50:16;;;;;;;9.88;4.40;;;12.90;99.90;;;;;;5049814;28;20021;-73
2023/04/15 07:52:42;;;;;;;12.43;4.07;;;13.00;99.90;;;;;;5050402;28;20041;-74
2023/04/15 07:55:08;;;;;;;12.55;3.90;;;13.10;99.90;;;;;;5050906;28;20043;-74
2023/04/15 07:57:35;;;;;;;14.57;4.00;;;13.20;99.90;;;;;;5051141;28;20498;-73
2023/04/15 08:00:04;;;;;;;10.10;3.80;;;13.30;99.90;;;;;;5050505;28;20032;-73
2023/04/15 08:02:30;;;;;;;16.10;4.03;;;13.40;99.90;;;;;;5048949;28;20044;-74
2023/04/15 08:04:56;;;;;;;10.18;4.10;;;13.50;99.90;;;;;;5047551;28;20036;-74
2023/04/15 08:07:23;;;;;;;10.50;3.65;;;13.60;99.90;;;;;;5050413;28;20049;-73
2023/04/15 08:09:49;;;;;;;9.05;3.80;;;13.60;99.90;;;;;;5050986;28;20051;-73
2023/04/15 08:12:15;;;;;;;7.78;3.45;;;13.60;99.90;;;;;;5052044;28;20033;-73
2023/04/15 08:14:41;;;;;;;8.15;3.70;;;13.60;99.90;;;;;;5050050;28;20042;-72
2023/04/15 08:17:08;;;;;;;10.85;4.20;;;13.60;99.90;;;;;;5050708;28;20037;-74
2023/04/15 08:19:34;;;;;;;9.55;3.40;;;13.60;99.90;;;;;;5049992;28;20383;-74
2023/04/15 08:22:00;;;;;;;8.65;3.90;;;13.80;99.90;;;;;;5031060;28;20029;-73
2023/04/15 08:24:26;;;;;;;7.80;4.25;;;13.70;99.90;;;;;;5051205;28;20036;-74
2023/04/15 08:26:52;;;;;;;7.43;3.67;;;13.80;99.90;;;;;;5051745;28;20029;-74
2023/04/15 08:29:18;;;;;;;8.77;3.40;;;13.70;99.90;;;;;;5051563;28;20364;-74
2023/04/15 08:31:44;;;;;;;13.30;3.78;;;13.60;99.90;;;;;;5050711;28;20040;-74
2023/04/15 08:34:11;;;;;;;5.38;3.03;;;13.50;99.90;;;;;;5048928;28;20391;-74
2023/04/15 08:36:37;;;;;;;10.93;3.85;;;13.50;99.90;;;;;;5048862;28;20029;-74
2023/04/15 08:39:03;;;;;;;11.18;4.05;;;13.40;99.90;;;;;;5050547;28;20029;-74
2023/04/15 08:41:42;;;;;;;8.70;3.50;;;13.50;99.90;;;;;;5049459;28;20407;-74
2023/04/15 08:44:08;;;;;;;11.43;3.65;;;13.80;99.90;;;;;;5050216;28;20380;-74
2023/04/15 08:46:34;;;;;;;11.88;3.85;;;13.90;99.90;;;;;;5049563;28;20032;-74
2023/04/15 08:49:02;;;;;;;7.18;3.65;;;14.20;99.90;;;;;;5033482;28;20033;-74
2023/04/15 08:51:28;;;;;;;8.07;3.60;;;14.30;99.90;;;;;;5049676;28;20514;-73
2023/04/15 08:53:55;;;;;;;10.25;3.60;;;14.40;99.90;;;;;;5050050;28;20040;-74
2023/04/15 08:56:24;;;;;;;7.28;3.38;;;14.50;99.90;;;;;;5051691;28;20028;-74
2023/04/15 08:58:50;;;;;;;6.72;3.88;;;14.30;99.90;;;;;;5043913;28;20037;-73
2023/04/15 09:01:16;;;;;;;5.13;3.80;;;14.30;99.90;;;;;;5031116;28;20045;-73
2023/04/15 09:03:42;;;;;;;4.68;3.92;;;14.40;99.90;;;;;;5047567;28;20033;-72
2023/04/15 09:06:08;;;;;;;5.75;3.63;;;14.60;99.90;;;;;;5032164;28;20037;-74
2023/04/15 09:08:34;;;;;;;6.35;4.00;;;14.60;99.90;;;;;;5026396;28;20033;-73
2023/04/15 09:11:01;;;;;;;6.68;4.20;;;14.70;99.90;;;;;;5049920;28;20033;-73
2023/04/15 09:13:28;;;;;;;5.47;3.92;;;14.60;99.90;;;;;;5049566;28;20040;-75
2023/04/15 09:15:55;;;;;;;7.68;4.63;;;14.50;99.90;;;;;;5052518;28;20040;-74
2023/04/15 09:18:28;;;;;;;4.60;4.20;;;14.60;99.90;;;;;;5054437;28;20530;-74
2023/04/15 09:20:55;;;;;;;5.30;4.28;;;14.80;99.90;;;;;;5050222;28;20036;-74
2023/04/15 09:23:21;;;;;;;5.38;4.18;;;14.80;99.90;;;;;;5051263;28;20040;-75
2023/04/15 09:25:48;;;;;;;3.63;3.40;;;14.70;99.90;;;;;;5051329;28;20017;-74
2023/04/15 09:28:14;;;;;;;6.60;4.30;;;14.80;99.90;;;;;;5052436;28;20033;-74
2023/04/15 09:30:44;;;;;;;4.25;3.83;;;14.80;99.90;;;;;;5053221;28;20021;-74
2023/04/15 09:33:11;;;;;;;6.25;4.00;;;14.90;99.90;;;;;;5053475;28;20391;-74
2023/04/15 09:35:37;;;;;;;4.63;3.85;;;14.80;99.90;;;;;;5037750;28;20053;-75
2023/04/15 09:38:05;;;;;;;6.90;3.85;;;14.90;99.90;;;;;;5029765;28;20373;-75
2023/04/15 09:40:35;;;;;;;6.05;4.00;;;15.00;99.90;;;;;;5053389;28;20376;-74
2023/04/15 09:43:05;;;;;;;5.00;3.80;;;15.00;99.90;;;;;;5053302;28;20036;-75
2023/04/15 09:45:32;;;;;;;7.72;3.80;;;14.90;99.90;;;;;;5053005;28;20032;-74
2023/04/15 09:47:58;;;;;;;7.80;4.18;;;15.00;99.90;;;;;;5052374;28;20032;-74
2023/04/15 09:50:28;;;;;;;10.07;4.95;;;15.10;99.90;;;;;;5052731;28;20081;-74
2023/04/15 09:52:55;;;;;;;7.03;4.28;;;14.90;99.90;;;;;;5063249;28;20045;-73
2023/04/15 09:55:21;;;;;;;4.47;3.78;;;14.80;99.90;;;;;;5050230;28;20375;-73
2023/04/15 09:57:47;;;;;;;3.80;3.60;;;15.00;99.90;;;;;;5032421;28;20079;-73
2023/04/15 10:00:14;;;;;;;6.38;3.78;;;15.10;99.90;;;;;;5049248;28;20044;-73
2023/04/15 10:02:43;;;;;;;7.18;3.70;;;15.00;99.90;;;;;;5052910;28;20029;-73
2023/04/15 10:05:10;;;;;;;8.48;4.00;;;15.20;99.90;;;;;;5053075;28;20385;-74
2023/04/15 10:07:37;;;;;;;6.82;4.25;;;15.50;99.90;;;;;;5036598;28;20029;-73
2023/04/15 10:10:04;;;;;;;6.60;3.92;;;15.50;99.90;;;;;;5052478;28;20028;-74
2023/04/15 10:12:30;;;;;;;5.10;4.20;;;15.70;99.90;;;;;;5053078;28;20475;-73
2023/04/15 10:14:58;;;;;;;7.05;4.10;;;15.60;99.90;;;;;;5051987;28;20040;-73
2023/04/15 10:17:27;;;;;;;5.88;3.90;;;15.70;99.90;;;;;;5036014;28;20041;-73
2023/04/15 10:19:54;;;;;;;11.18;3.67;;;15.70;99.90;;;;;;5036716;28;20021;-73
2023/04/15 10:22:22;;;;;;;4.82;4.20;;;15.50;99.90;;;;;;5052116;28;20036;-74
2023/04/15 10:24:48;;;;;;;8.50;4.15;;;15.30;99.90;;;;;;5050227;28;20553;-73
2023/04/15 10:27:16;;;;;;;7.40;4.43;;;15.00;99.90;;;;;;5052263;28;20036;-73
2023/04/15 10:29:42;;;;;;;6.82;4.07;;;15.20;99.90;;;;;;5035290;28;20029;-73
2023/04/15 10:32:08;;;;;;;6.70;4.03;;;15.40;99.90;;;;;;5035011;28;20033;-74
2023/04/15 10:34:34;;;;;;;5.20;4.43;;;15.60;99.90;;;;;;5052617;28;20025;-73
2023/04/15 10:37:02;;;;;;;5.63;4.40;;;15.80;99.90;;;;;;5051756;28;20048;-73
2023/04/15 10:39:37;;;;;;;4.38;4.07;;;16.10;99.90;;;;;;5050317;28;20056;-73
2023/04/15 10:42:14;;;;;;;7.15;4.70;;;16.10;99.90;;;;;;5053384;28;20025;-73
2023/04/15 10:44:44;;;;;;;4.90;3.67;;;15.90;99.90;;;;;;5047392;28;20021;-74
2023/04/15 10:47:17;;;;;;;4.47;4.07;;;15.80;99.90;;;;;;5034275;28;20033;-73
2023/04/15 10:49:51;;;;;;;4.88;4.00;;;15.70;99.90;;;;;;5052246;28;20029;-73
2023/04/15 10:52:22;;;;;;;11.00;4.30;;;15.80;99.90;;;;;;5052882;28;20064;-73
2023/04/15 10:54:48;;;;;;;4.40;4.00;;;16.00;99.90;;;;;;5051213;28;20029;-73
2023/04/15 10:57:24;;;;;;;4.72;4.22;;;16.10;99.90;;;;;;5051865;28;20025;-73
2023/04/15 11:00:10;;;;;;;4.47;4.07;;;16.00;99.90;;;;;;5051686;28;20033;-73
2023/04/15 11:02:55;;;;;;;5.05;4.40;;;15.90;99.90;;;;;;5051831;28;20033;-73
2023/04/15 11:05:42;;;;;;;5.28;4.78;;;16.10;99.90;;;;;;5048834;28;20033;-73
2023/04/15 11:08:09;;;;;;;5.90;4.68;;;16.10;99.90;;;;;;5052062;28;20052;-73
2023/04/15 11:10:35;;;;;;;5.13;4.72;;;16.20;99.90;;;;;;5049206;28;20037;-74
2023/04/15 11:13:02;;;;;;;6.57;4.78;;;16.30;99.90;;;;;;5051090;28;20415;-73
2023/04/15 11:15:32;;;;;;;5.07;4.68;;;16.40;99.90;;;;;;5031177;28;20387;-73
2023/04/15 11:18:22;;;;;;;6.95;4.75;;;16.30;99.90;;;;;;5046608;28;20048;-74
2023/04/15 11:20:50;;;;;;;5.70;4.35;;;16.40;99.90;;;;;;5049205;28;20036;-73
2023/04/15 11:23:27;;;;;;;4.80;3.80;;;16.50;99.90;;;;;;5051127;28;20037;-73
2023/04/15 11:25:57;;;;;;;4.90;4.50;;;16.30;99.90;;;;;;5050458;28;20384;-73
2023/04/15 11:28:27;;;;;;;4.57;4.20;;;16.40;99.90;;;;;;5034260;28;20044;-73
2023/04/15 11:30:54;;;;;;;6.13;4.50;;;16.40;99.90;;;;;;5050721;28;20036;-74
2023/04/15 11:33:21;;;;;;;5.45;4.93;;;16.30;99.90;;;;;;5051107;28;20033;-74
2023/04/15 11:35:47;;;;;;;7.25;4.78;;;16.50;99.90;;;;;;5050559;28;20036;-73
2023/04/15 11:38:14;;;;;;;5.10;4.70;;;16.60;99.90;;;;;;5049797;28;20052;-73
2023/04/15 11:40:40;;;;;;;4.93;4.45;;;16.70;99.90;;;;;;5051282;28;20025;-73
2023/04/15 11:43:08;;;;;;;5.38;4.93;;;16.80;99.90;;;;;;5034430;28;20044;-73
2023/04/15 11:45:35;;;;;;;5.63;4.53;;;16.80;99.90;;;;;;5049377;28;20410;-73
2023/04/15 11:48:11;;;;;;;4.93;4.57;;;16.80;99.90;;;;;;5050813;28;20029;-73
2023/04/15 11:50:39;;;;;;;5.18;4.70;;;16.90;99.90;;;;;;5051518;28;20044;-73
2023/04/15 11:53:06;;;;;;;5.32;4.97;;;16.90;99.90;;;;;;5050650;28;20040;-74
2023/04/15 11:55:49;;;;;;;5.38;4.97;;;16.90;99.90;;;;;;5051742;28;20036;-73
2023/04/15 11:58:22;;;;;;;5.68;4.93;;;16.60;99.90;;;;;;5033928;28;20100;-73
2023/04/15 12:00:53;;;;;;;5.25;4.65;;;16.50;99.90;;;;;;5049937;28;20044;-73
2023/04/15 12:03:26;;;;;;;7.65;5.18;;;16.40;99.90;;;;;;5051273;28;20029;-73
2023/04/15 12:06:11;;;;;;;6.28;5.80;;;16.40;99.90;;;;;;5033112;28;20025;-74
2023/04/15 12:09:02;;;;;;;5.38;4.68;;;16.50;99.90;;;;;;5052006;28;20029;-73
2023/04/15 12:11:29;;;;;;;;;;;16.70;99.90;;;;;;5028994;28;20048;-74
2023/04/15 12:14:01;;;;;;;5.97;5.05;;;16.70;99.90;;;;;;5050361;28;20314;-73
2023/04/15 12:16:27;;;;;;;5.18;4.72;;;16.60;99.90;;;;;;5050641;28;20033;-73
2023/04/15 12:18:55;;;;;;;5.07;4.68;;;16.70;99.90;;;;;;5050367;28;20033;-73
2023/04/15 12:21:22;;;;;;;5.30;4.85;;;16.90;99.90;;;;;;5045431;28;20048;-74
2023/04/15 12:23:55;;;;;;;5.43;5.03;;;16.90;99.90;;;;;;5033842;28;20033;-73
2023/04/15 12:26:52;;;;;;;5.57;5.15;;;16.80;99.90;;;;;;5033930;28;20025;-73
2023/04/15 12:29:18;;;;;;;4.80;4.50;;;16.90;99.90;;;;;;5041952;28;20036;-73
2023/04/15 12:31:55;;;;;;;5.38;4.90;;;16.50;99.90;;;;;;5049856;28;20040;-74
2023/04/15 12:34:28;;;;;;;5.57;5.07;;;16.60;99.90;;;;;;5050363;28;20380;-74
2023/04/15 12:36:55;;;;;;;5.50;5.00;;;16.90;99.90;;;;;;5016644;28;20060;-73
2023/04/15 12:39:25;;;;;;;6.70;6.13;;;17.20;99.90;;;;;;5033634;28;20041;-73
2023/04/15 12:41:52;;;;;;;5.38;4.97;;;17.40;99.90;;;;;;5049989;28;20024;-74
2023/04/15 12:44:18;;;;;;;5.18;4.78;;;17.20;99.90;;;;;;5030717;28;20033;-73
2023/04/15 12:46:45;;;;;;;5.10;4.75;;;16.90;98.80;;;;;;5063630;28;20033;-73
2023/04/15 12:49:11;;;;;;;4.93;4.53;;;16.50;99.90;;;;;;5054083;28;20029;-73